sensor_id;sensor_type;location;lat;lon;timestamp;P1;durP1;ratioP1;P2;durP2;ratioP2
22230;SDS011;11284;48.086;-1.652;2022-09-30T00:00:51;5.60;;;3.40;;
22230;SDS011;11284;48.086;-1.652;2022-09-30T00:03:18;5.43;;;3.33;;
22230;SDS011;11284;48.086;-1.652;2022-09-30T00:05:44;6.40;;;3.72;;
22230;SDS011;11284;48.086;-1.652;2022-09-30T00:08:10;5.30;;;3.20;;
22230;SDS011;11284;48.086;-1.652;2022-09-30T00:10:36;5.93;;;3.40;;
22230;SDS011;11284;48.086;-1.652;2022-09-30T00:13:02;5.90;;;3.85;;
22230;SDS011;11284;48.086;-1.652;2022-09-30T00:15:28;5.57;;;3.80;;
22230;SDS011;11284;48.086;-1.652;2022-09-30T00:17:54;5.65;;;3.53;;
22230;SDS011;11284;48.086;-1.652;2022-09-30T00:20:20;5.82;;;3.80;;
22230;SDS011;11284;48.086;-1.652;2022-09-30T00:22:46;5.55;;;3.72;;
22230;SDS011;11284;48.086;-1.652;2022-09-30T00:25:12;6.22;;;4.00;;
22230;SDS011;11284;48.086;-1.652;2022-09-30T00:27:38;6.10;;;4.10;;
22230;SDS011;11284;48.086;-1.652;2022-09-30T00:30:04;5.55;;;3.75;;
22230;SDS011;11284;48.086;-1.652;2022-09-30T00:32:30;5.68;;;3.65;;
22230;SDS011;11284;48.086;-1.652;2022-09-30T00:34:56;7.88;;;3.72;;
22230;SDS011;11284;48.086;-1.652;2022-09-30T00:37:22;6.35;;;4.05;;
22230;SDS011;11284;48.086;-1.652;2022-09-30T00:39:48;7.15;;;4.30;;
22230;SDS011;11284;48.086;-1.652;2022-09-30T00:42:14;8.60;;;4.30;;
22230;SDS011;11284;48.086;-1.652;2022-09-30T00:44:44;6.22;;;3.80;;
22230;SDS011;11284;48.086;-1.652;2022-09-30T00:49:59;6.10;;;4.07;;
22230;SDS011;11284;48.086;-1.652;2022-09-30T00:52:26;6.43;;;3.85;;
22230;SDS011;11284;48.086;-1.652;2022-09-30T00:54:52;6.28;;;4.03;;
22230;SDS011;11284;48.086;-1.652;2022-09-30T00:57:19;6.30;;;4.00;;
22230;SDS011;11284;48.086;-1.652;2022-09-30T00:59:46;6.93;;;4.10;;
22230;SDS011;11284;48.086;-1.652;2022-09-30T01:02:12;6.70;;;4.18;;
22230;SDS011;11284;48.086;-1.652;2022-09-30T01:04:39;10.20;;;4.50;;
22230;SDS011;11284;48.086;-1.652;2022-09-30T01:07:06;6.85;;;4.05;;
22230;SDS011;11284;48.086;-1.652;2022-09-30T01:09:33;7.18;;;4.30;;
22230;SDS011;11284;48.086;-1.652;2022-09-30T01:12:21;6.28;;;4.50;;
22230;SDS011;11284;48.086;-1.652;2022-09-30T01:14:46;7.57;;;4.32;;
22230;SDS011;11284;48.086;-1.652;2022-09-30T01:22:36;9.27;;;4.25;;
22230;SDS011;11284;48.086;-1.652;2022-09-30T01:33:40;7.45;;;3.83;;
22230;SDS011;11284;48.086;-1.652;2022-09-30T01:36:27;8.50;;;4.15;;
22230;SDS011;11284;48.086;-1.652;2022-09-30T01:47:33;6.78;;;4.00;;
22230;SDS011;11284;48.086;-1.652;2022-09-30T01:52:38;5.93;;;3.97;;
22230;SDS011;11284;48.086;-1.652;2022-09-30T02:00:08;8.05;;;4.18;;
22230;SDS011;11284;48.086;-1.652;2022-09-30T02:02:35;6.78;;;4.25;;
22230;SDS011;11284;48.086;-1.652;2022-09-30T02:05:09;6.60;;;3.75;;
22230;SDS011;11284;48.086;-1.652;2022-09-30T02:07:44;5.57;;;3.85;;
22230;SDS011;11284;48.086;-1.652;2022-09-30T02:10:14;7.05;;;4.35;;
22230;SDS011;11284;48.086;-1.652;2022-09-30T02:12:43;5.70;;;3.80;;
22230;SDS011;11284;48.086;-1.652;2022-09-30T02:15:12;5.63;;;3.90;;
22230;SDS011;11284;48.086;-1.652;2022-09-30T02:17:46;5.55;;;4.03;;
22230;SDS011;11284;48.086;-1.652;2022-09-30T02:20:20;6.55;;;3.92;;
22230;SDS011;11284;48.086;-1.652;2022-09-30T02:22:51;5.40;;;4.15;;
22230;SDS011;11284;48.086;-1.652;2022-09-30T02:25:28;5.50;;;3.63;;
22230;SDS011;11284;48.086;-1.652;2022-09-30T02:27:56;6.63;;;3.75;;
22230;SDS011;11284;48.086;-1.652;2022-09-30T02:30:23;5.78;;;3.90;;
22230;SDS011;11284;48.086;-1.652;2022-09-30T02:32:54;5.47;;;3.83;;
22230;SDS011;11284;48.086;-1.652;2022-09-30T02:35:22;5.47;;;3.60;;
22230;SDS011;11284;48.086;-1.652;2022-09-30T02:38:12;5.80;;;4.03;;
22230;SDS011;11284;48.086;-1.652;2022-09-30T02:43:06;6.63;;;4.15;;
22230;SDS011;11284;48.086;-1.652;2022-09-30T02:45:37;7.68;;;3.65;;
22230;SDS011;11284;48.086;-1.652;2022-09-30T02:50:42;5.97;;;3.83;;
22230;SDS011;11284;48.086;-1.652;2022-09-30T02:58:28;5.35;;;3.70;;
22230;SDS011;11284;48.086;-1.652;2022-09-30T03:00:54;6.88;;;3.90;;
22230;SDS011;11284;48.086;-1.652;2022-09-30T03:03:28;6.40;;;4.28;;
22230;SDS011;11284;48.086;-1.652;2022-09-30T03:05:54;5.75;;;3.97;;
22230;SDS011;11284;48.086;-1.652;2022-09-30T03:08:21;7.05;;;4.20;;
22230;SDS011;11284;48.086;-1.652;2022-09-30T03:10:47;5.70;;;3.70;;
22230;SDS011;11284;48.086;-1.652;2022-09-30T03:13:38;6.10;;;3.75;;
22230;SDS011;11284;48.086;-1.652;2022-09-30T03:28:41;5.65;;;3.60;;
22230;SDS011;11284;48.086;-1.652;2022-09-30T03:31:15;6.45;;;3.35;;
22230;SDS011;11284;48.086;-1.652;2022-09-30T03:41:46;6.13;;;3.70;;
22230;SDS011;11284;48.086;-1.652;2022-09-30T03:46:49;7.80;;;4.20;;
22230;SDS011;11284;48.086;-1.652;2022-09-30T03:49:20;6.07;;;3.85;;
22230;SDS011;11284;48.086;-1.652;2022-09-30T03:51:47;8.95;;;4.40;;
22230;SDS011;11284;48.086;-1.652;2022-09-30T03:54:13;6.43;;;4.00;;
22230;SDS011;11284;48.086;-1.652;2022-09-30T03:56:40;6.22;;;3.78;;
22230;SDS011;11284;48.086;-1.652;2022-09-30T03:59:22;6.28;;;3.95;;
22230;SDS011;11284;48.086;-1.652;2022-09-30T04:01:49;5.80;;;4.03;;
22230;SDS011;11284;48.086;-1.652;2022-09-30T04:04:15;7.65;;;3.95;;
22230;SDS011;11284;48.086;-1.652;2022-09-30T04:06:42;6.00;;;4.15;;
22230;SDS011;11284;48.086;-1.652;2022-09-30T04:09:08;6.72;;;4.13;;
22230;SDS011;11284;48.086;-1.652;2022-09-30T04:11:34;5.95;;;4.32;;
22230;SDS011;11284;48.086;-1.652;2022-09-30T04:14:00;5.38;;;4.10;;
22230;SDS011;11284;48.086;-1.652;2022-09-30T04:16:29;6.22;;;3.90;;
22230;SDS011;11284;48.086;-1.652;2022-09-30T04:18:55;5.88;;;3.88;;
22230;SDS011;11284;48.086;-1.652;2022-09-30T04:21:21;5.72;;;3.85;;
22230;SDS011;11284;48.086;-1.652;2022-09-30T04:23:47;5.45;;;3.97;;
22230;SDS011;11284;48.086;-1.652;2022-09-30T04:26:14;6.63;;;4.20;;
22230;SDS011;11284;48.086;-1.652;2022-09-30T04:28:40;6.97;;;3.83;;
22230;SDS011;11284;48.086;-1.652;2022-09-30T04:31:08;5.72;;;4.00;;
22230;SDS011;11284;48.086;-1.652;2022-09-30T04:33:35;7.53;;;4.55;;
22230;SDS011;11284;48.086;-1.652;2022-09-30T04:36:01;8.55;;;5.53;;
22230;SDS011;11284;48.086;-1.652;2022-09-30T04:38:27;9.57;;;6.00;;
22230;SDS011;11284;48.086;-1.652;2022-09-30T04:40:54;8.02;;;4.45;;
22230;SDS011;11284;48.086;-1.652;2022-09-30T04:43:20;5.85;;;4.20;;
22230;SDS011;11284;48.086;-1.652;2022-09-30T04:45:47;7.20;;;4.63;;
22230;SDS011;11284;48.086;-1.652;2022-09-30T04:48:14;6.97;;;4.38;;
22230;SDS011;11284;48.086;-1.652;2022-09-30T04:50:41;8.45;;;4.95;;
22230;SDS011;11284;48.086;-1.652;2022-09-30T04:53:07;7.05;;;4.22;;
22230;SDS011;11284;48.086;-1.652;2022-09-30T04:55:33;8.23;;;4.55;;
22230;SDS011;11284;48.086;-1.652;2022-09-30T04:57:59;8.80;;;4.68;;
22230;SDS011;11284;48.086;-1.652;2022-09-30T05:00:25;5.80;;;4.20;;
22230;SDS011;11284;48.086;-1.652;2022-09-30T05:02:51;9.45;;;4.32;;
22230;SDS011;11284;48.086;-1.652;2022-09-30T05:05:17;5.20;;;3.92;;
22230;SDS011;11284;48.086;-1.652;2022-09-30T05:07:44;8.35;;;4.60;;
22230;SDS011;11284;48.086;-1.652;2022-09-30T05:10:10;6.32;;;4.70;;
22230;SDS011;11284;48.086;-1.652;2022-09-30T05:12:37;8.07;;;5.43;;
22230;SDS011;11284;48.086;-1.652;2022-09-30T05:15:03;7.88;;;4.18;;
22230;SDS011;11284;48.086;-1.652;2022-09-30T05:17:30;9.60;;;4.93;;
22230;SDS011;11284;48.086;-1.652;2022-09-30T05:19:56;8.35;;;5.18;;
22230;SDS011;11284;48.086;-1.652;2022-09-30T05:22:22;7.90;;;5.07;;
22230;SDS011;11284;48.086;-1.652;2022-09-30T05:24:51;8.43;;;4.93;;
22230;SDS011;11284;48.086;-1.652;2022-09-30T05:27:18;7.45;;;4.95;;
22230;SDS011;11284;48.086;-1.652;2022-09-30T05:29:44;6.78;;;4.63;;
22230;SDS011;11284;48.086;-1.652;2022-09-30T05:32:10;7.05;;;4.38;;
22230;SDS011;11284;48.086;-1.652;2022-09-30T05:34:36;7.68;;;5.32;;
22230;SDS011;11284;48.086;-1.652;2022-09-30T05:37:03;8.45;;;4.95;;
22230;SDS011;11284;48.086;-1.652;2022-09-30T05:39:29;8.13;;;4.78;;
22230;SDS011;11284;48.086;-1.652;2022-09-30T05:41:55;9.10;;;5.13;;
22230;SDS011;11284;48.086;-1.652;2022-09-30T05:44:22;6.32;;;4.72;;
22230;SDS011;11284;48.086;-1.652;2022-09-30T05:46:48;8.18;;;5.20;;
22230;SDS011;11284;48.086;-1.652;2022-09-30T05:49:14;8.27;;;5.18;;
22230;SDS011;11284;48.086;-1.652;2022-09-30T05:51:40;8.25;;;5.40;;
22230;SDS011;11284;48.086;-1.652;2022-09-30T05:54:06;11.70;;;6.60;;
22230;SDS011;11284;48.086;-1.652;2022-09-30T05:56:32;9.15;;;6.47;;
22230;SDS011;11284;48.086;-1.652;2022-09-30T05:59:03;9.90;;;6.88;;
22230;SDS011;11284;48.086;-1.652;2022-09-30T06:01:29;11.63;;;7.38;;
22230;SDS011;11284;48.086;-1.652;2022-09-30T06:03:55;10.85;;;7.18;;
22230;SDS011;11284;48.086;-1.652;2022-09-30T06:06:21;8.38;;;5.97;;
22230;SDS011;11284;48.086;-1.652;2022-09-30T06:08:47;8.68;;;6.00;;
22230;SDS011;11284;48.086;-1.652;2022-09-30T06:11:14;9.27;;;6.47;;
22230;SDS011;11284;48.086;-1.652;2022-09-30T06:13:41;11.75;;;6.93;;
22230;SDS011;11284;48.086;-1.652;2022-09-30T06:16:08;7.85;;;5.75;;
22230;SDS011;11284;48.086;-1.652;2022-09-30T06:18:34;9.30;;;5.10;;
22230;SDS011;11284;48.086;-1.652;2022-09-30T06:21:02;8.60;;;5.05;;
22230;SDS011;11284;48.086;-1.652;2022-09-30T06:23:29;7.75;;;5.03;;
22230;SDS011;11284;48.086;-1.652;2022-09-30T06:25:55;10.02;;;5.40;;
22230;SDS011;11284;48.086;-1.652;2022-09-30T06:28:22;9.52;;;5.50;;
22230;SDS011;11284;48.086;-1.652;2022-09-30T06:30:48;7.32;;;5.13;;
22230;SDS011;11284;48.086;-1.652;2022-09-30T06:33:14;6.40;;;4.10;;
22230;SDS011;11284;48.086;-1.652;2022-09-30T06:35:41;6.68;;;4.30;;
22230;SDS011;11284;48.086;-1.652;2022-09-30T06:38:08;7.28;;;4.38;;
22230;SDS011;11284;48.086;-1.652;2022-09-30T06:40:34;8.48;;;5.03;;
22230;SDS011;11284;48.086;-1.652;2022-09-30T06:43:01;6.40;;;4.32;;
22230;SDS011;11284;48.086;-1.652;2022-09-30T06:45:27;5.95;;;4.28;;
22230;SDS011;11284;48.086;-1.652;2022-09-30T06:48:00;6.25;;;4.78;;
22230;SDS011;11284;48.086;-1.652;2022-09-30T06:50:27;8.43;;;4.40;;
22230;SDS011;11284;48.086;-1.652;2022-09-30T06:52:56;5.82;;;4.35;;
22230;SDS011;11284;48.086;-1.652;2022-09-30T06:55:23;5.90;;;4.00;;
22230;SDS011;11284;48.086;-1.652;2022-09-30T06:57:51;5.63;;;3.90;;
22230;SDS011;11284;48.086;-1.652;2022-09-30T07:00:17;6.32;;;4.35;;
22230;SDS011;11284;48.086;-1.652;2022-09-30T07:02:43;6.57;;;4.22;;
22230;SDS011;11284;48.086;-1.652;2022-09-30T07:05:09;11.50;;;3.60;;
22230;SDS011;11284;48.086;-1.652;2022-09-30T07:07:35;5.53;;;3.60;;
22230;SDS011;11284;48.086;-1.652;2022-09-30T07:10:02;5.30;;;3.35;;
22230;SDS011;11284;48.086;-1.652;2022-09-30T07:12:28;5.47;;;3.72;;
22230;SDS011;11284;48.086;-1.652;2022-09-30T07:14:54;7.05;;;3.78;;
22230;SDS011;11284;48.086;-1.652;2022-09-30T07:17:21;5.00;;;3.70;;
22230;SDS011;11284;48.086;-1.652;2022-09-30T07:19:47;6.97;;;3.88;;
22230;SDS011;11284;48.086;-1.652;2022-09-30T07:22:16;5.30;;;3.47;;
22230;SDS011;11284;48.086;-1.652;2022-09-30T07:24:55;4.88;;;3.78;;
22230;SDS011;11284;48.086;-1.652;2022-09-30T07:27:22;5.53;;;3.80;;
22230;SDS011;11284;48.086;-1.652;2022-09-30T07:29:48;6.13;;;4.45;;
22230;SDS011;11284;48.086;-1.652;2022-09-30T07:32:14;4.80;;;3.58;;
22230;SDS011;11284;48.086;-1.652;2022-09-30T07:34:41;6.00;;;4.05;;
22230;SDS011;11284;48.086;-1.652;2022-09-30T07:37:08;5.53;;;4.10;;
22230;SDS011;11284;48.086;-1.652;2022-09-30T07:39:35;5.72;;;4.20;;
22230;SDS011;11284;48.086;-1.652;2022-09-30T07:42:01;5.85;;;4.15;;
22230;SDS011;11284;48.086;-1.652;2022-09-30T07:44:28;5.25;;;3.83;;
22230;SDS011;11284;48.086;-1.652;2022-09-30T07:46:54;6.93;;;4.45;;
22230;SDS011;11284;48.086;-1.652;2022-09-30T07:49:20;6.28;;;4.00;;
22230;SDS011;11284;48.086;-1.652;2022-09-30T07:51:53;5.45;;;3.90;;
22230;SDS011;11284;48.086;-1.652;2022-09-30T07:54:21;6.07;;;4.13;;
22230;SDS011;11284;48.086;-1.652;2022-09-30T07:56:48;6.90;;;3.78;;
22230;SDS011;11284;48.086;-1.652;2022-09-30T07:59:14;5.45;;;3.97;;
22230;SDS011;11284;48.086;-1.652;2022-09-30T08:01:40;5.53;;;3.70;;
22230;SDS011;11284;48.086;-1.652;2022-09-30T08:04:06;5.50;;;3.50;;
22230;SDS011;11284;48.086;-1.652;2022-09-30T08:06:36;6.30;;;3.85;;
22230;SDS011;11284;48.086;-1.652;2022-09-30T08:09:02;5.20;;;3.45;;
22230;SDS011;11284;48.086;-1.652;2022-09-30T08:11:31;5.50;;;3.33;;
22230;SDS011;11284;48.086;-1.652;2022-09-30T08:13:58;5.28;;;3.50;;
22230;SDS011;11284;48.086;-1.652;2022-09-30T08:16:24;6.18;;;3.78;;
22230;SDS011;11284;48.086;-1.652;2022-09-30T08:18:57;6.47;;;3.53;;
22230;SDS011;11284;48.086;-1.652;2022-09-30T08:23:50;5.28;;;3.45;;
22230;SDS011;11284;48.086;-1.652;2022-09-30T08:26:16;7.05;;;4.13;;
22230;SDS011;11284;48.086;-1.652;2022-09-30T08:28:42;6.35;;;4.07;;
22230;SDS011;11284;48.086;-1.652;2022-09-30T08:31:14;6.47;;;3.95;;
22230;SDS011;11284;48.086;-1.652;2022-09-30T08:33:41;6.93;;;4.60;;
22230;SDS011;11284;48.086;-1.652;2022-09-30T08:36:08;8.75;;;4.55;;
22230;SDS011;11284;48.086;-1.652;2022-09-30T08:38:34;13.63;;;5.65;;
22230;SDS011;11284;48.086;-1.652;2022-09-30T08:43:33;9.85;;;6.07;;
22230;SDS011;11284;48.086;-1.652;2022-09-30T08:48:57;10.10;;;5.75;;
22230;SDS011;11284;48.086;-1.652;2022-09-30T08:51:30;10.15;;;6.05;;
22230;SDS011;11284;48.086;-1.652;2022-09-30T08:53:59;7.63;;;5.85;;
22230;SDS011;11284;48.086;-1.652;2022-09-30T08:56:31;7.88;;;5.65;;
22230;SDS011;11284;48.086;-1.652;2022-09-30T08:59:04;8.50;;;5.75;;
22230;SDS011;11284;48.086;-1.652;2022-09-30T09:01:35;11.77;;;5.70;;
22230;SDS011;11284;48.086;-1.652;2022-09-30T09:04:03;8.90;;;5.30;;
22230;SDS011;11284;48.086;-1.652;2022-09-30T09:06:34;7.47;;;5.32;;
22230;SDS011;11284;48.086;-1.652;2022-09-30T09:17:06;7.40;;;4.60;;
22230;SDS011;11284;48.086;-1.652;2022-09-30T09:19:36;6.93;;;3.58;;
22230;SDS011;11284;48.086;-1.652;2022-09-30T09:22:06;6.55;;;3.20;;
22230;SDS011;11284;48.086;-1.652;2022-09-30T09:32:11;5.90;;;3.20;;
22230;SDS011;11284;48.086;-1.652;2022-09-30T09:34:38;6.60;;;2.65;;
22230;SDS011;11284;48.086;-1.652;2022-09-30T09:39:55;5.90;;;2.70;;
22230;SDS011;11284;48.086;-1.652;2022-09-30T09:44:59;4.80;;;2.50;;
22230;SDS011;11284;48.086;-1.652;2022-09-30T09:47:27;7.03;;;2.20;;
22230;SDS011;11284;48.086;-1.652;2022-09-30T09:50:00;6.25;;;2.67;;
22230;SDS011;11284;48.086;-1.652;2022-09-30T09:52:46;5.50;;;2.30;;
22230;SDS011;11284;48.086;-1.652;2022-09-30T09:55:16;4.55;;;2.10;;
22230;SDS011;11284;48.086;-1.652;2022-09-30T09:57:43;5.25;;;2.20;;
22230;SDS011;11284;48.086;-1.652;2022-09-30T10:00:10;5.25;;;2.17;;
22230;SDS011;11284;48.086;-1.652;2022-09-30T10:03:01;7.38;;;2.90;;
22230;SDS011;11284;48.086;-1.652;2022-09-30T10:05:28;3.85;;;1.90;;
22230;SDS011;11284;48.086;-1.652;2022-09-30T10:08:15;3.75;;;2.08;;
22230;SDS011;11284;48.086;-1.652;2022-09-30T10:11:03;4.30;;;1.85;;
22230;SDS011;11284;48.086;-1.652;2022-09-30T10:16:03;2.70;;;1.33;;
22230;SDS011;11284;48.086;-1.652;2022-09-30T10:18:33;3.38;;;1.60;;
22230;SDS011;11284;48.086;-1.652;2022-09-30T10:21:01;3.30;;;1.65;;
22230;SDS011;11284;48.086;-1.652;2022-09-30T10:23:31;4.97;;;1.60;;
22230;SDS011;11284;48.086;-1.652;2022-09-30T10:26:03;4.60;;;1.50;;
22230;SDS011;11284;48.086;-1.652;2022-09-30T10:28:34;3.85;;;1.50;;
22230;SDS011;11284;48.086;-1.652;2022-09-30T10:31:28;2.65;;;0.90;;
22230;SDS011;11284;48.086;-1.652;2022-09-30T10:33:59;2.47;;;0.60;;
22230;SDS011;11284;48.086;-1.652;2022-09-30T10:36:29;2.13;;;0.60;;
22230;SDS011;11284;48.086;-1.652;2022-09-30T10:38:58;2.60;;;0.90;;
22230;SDS011;11284;48.086;-1.652;2022-09-30T10:41:28;2.85;;;0.80;;
22230;SDS011;11284;48.086;-1.652;2022-09-30T10:44:01;4.18;;;0.88;;
22230;SDS011;11284;48.086;-1.652;2022-09-30T10:46:29;3.70;;;1.00;;
22230;SDS011;11284;48.086;-1.652;2022-09-30T10:48:56;2.90;;;0.85;;
22230;SDS011;11284;48.086;-1.652;2022-09-30T10:51:27;2.08;;;0.88;;
22230;SDS011;11284;48.086;-1.652;2022-09-30T10:53:54;2.90;;;0.75;;
22230;SDS011;11284;48.086;-1.652;2022-09-30T10:56:31;5.35;;;1.20;;
22230;SDS011;11284;48.086;-1.652;2022-09-30T10:58:57;2.47;;;0.68;;
22230;SDS011;11284;48.086;-1.652;2022-09-30T11:01:40;2.00;;;0.60;;
22230;SDS011;11284;48.086;-1.652;2022-09-30T11:04:28;4.18;;;0.60;;
22230;SDS011;11284;48.086;-1.652;2022-09-30T11:07:34;2.13;;;0.80;;
22230;SDS011;11284;48.086;-1.652;2022-09-30T11:12:46;3.45;;;0.70;;
22230;SDS011;11284;48.086;-1.652;2022-09-30T11:15:16;2.72;;;0.60;;
22230;SDS011;11284;48.086;-1.652;2022-09-30T11:17:55;1.73;;;0.50;;
22230;SDS011;11284;48.086;-1.652;2022-09-30T11:20:24;3.92;;;0.93;;
22230;SDS011;11284;48.086;-1.652;2022-09-30T11:22:59;2.30;;;0.60;;
22230;SDS011;11284;48.086;-1.652;2022-09-30T11:25:38;3.75;;;0.75;;
22230;SDS011;11284;48.086;-1.652;2022-09-30T11:33:41;3.08;;;1.10;;
22230;SDS011;11284;48.086;-1.652;2022-09-30T11:38:44;2.58;;;0.75;;
22230;SDS011;11284;48.086;-1.652;2022-09-30T11:44:00;3.55;;;0.80;;
22230;SDS011;11284;48.086;-1.652;2022-09-30T11:46:47;4.68;;;2.17;;
22230;SDS011;11284;48.086;-1.652;2022-09-30T12:02:09;2.72;;;0.85;;
22230;SDS011;11284;48.086;-1.652;2022-09-30T12:04:39;1.92;;;0.70;;
22230;SDS011;11284;48.086;-1.652;2022-09-30T12:07:20;2.10;;;0.80;;
22230;SDS011;11284;48.086;-1.652;2022-09-30T12:09:51;3.15;;;1.10;;
22230;SDS011;11284;48.086;-1.652;2022-09-30T12:12:18;2.53;;;0.82;;
22230;SDS011;11284;48.086;-1.652;2022-09-30T12:14:46;2.75;;;1.10;;
22230;SDS011;11284;48.086;-1.652;2022-09-30T12:17:21;3.58;;;1.10;;
22230;SDS011;11284;48.086;-1.652;2022-09-30T12:19:50;2.45;;;0.93;;
22230;SDS011;11284;48.086;-1.652;2022-09-30T12:24:45;2.80;;;1.30;;
22230;SDS011;11284;48.086;-1.652;2022-09-30T12:29:47;3.42;;;0.90;;
22230;SDS011;11284;48.086;-1.652;2022-09-30T12:40:25;3.08;;;1.20;;
22230;SDS011;11284;48.086;-1.652;2022-09-30T12:47:57;2.20;;;0.90;;
22230;SDS011;11284;48.086;-1.652;2022-09-30T12:50:27;3.05;;;0.82;;
22230;SDS011;11284;48.086;-1.652;2022-09-30T12:52:55;2.55;;;0.82;;
22230;SDS011;11284;48.086;-1.652;2022-09-30T12:57:47;1.98;;;0.70;;
22230;SDS011;11284;48.086;-1.652;2022-09-30T13:00:15;2.53;;;0.68;;
22230;SDS011;11284;48.086;-1.652;2022-09-30T13:02:42;3.90;;;2.10;;
22230;SDS011;11284;48.086;-1.652;2022-09-30T13:10:32;2.08;;;0.85;;
22230;SDS011;11284;48.086;-1.652;2022-09-30T13:13:18;3.28;;;1.15;;
22230;SDS011;11284;48.086;-1.652;2022-09-30T13:15:45;3.92;;;0.90;;
22230;SDS011;11284;48.086;-1.652;2022-09-30T13:18:57;3.55;;;1.05;;
22230;SDS011;11284;48.086;-1.652;2022-09-30T13:26:04;4.93;;;2.67;;
22230;SDS011;11284;48.086;-1.652;2022-09-30T13:28:53;3.38;;;0.90;;
22230;SDS011;11284;48.086;-1.652;2022-09-30T13:31:20;4.38;;;2.15;;
22230;SDS011;11284;48.086;-1.652;2022-09-30T13:36:40;3.67;;;0.90;;
22230;SDS011;11284;48.086;-1.652;2022-09-30T13:42:03;3.17;;;1.05;;
22230;SDS011;11284;48.086;-1.652;2022-09-30T13:46:59;2.60;;;0.90;;
22230;SDS011;11284;48.086;-1.652;2022-09-30T13:49:37;2.50;;;0.88;;
22230;SDS011;11284;48.086;-1.652;2022-09-30T13:52:14;3.33;;;1.10;;
22230;SDS011;11284;48.086;-1.652;2022-09-30T13:54:42;3.45;;;1.00;;
22230;SDS011;11284;48.086;-1.652;2022-09-30T13:57:14;6.60;;;2.60;;
22230;SDS011;11284;48.086;-1.652;2022-09-30T14:23:56;4.25;;;1.17;;
22230;SDS011;11284;48.086;-1.652;2022-09-30T14:26:30;4.07;;;1.33;;
22230;SDS011;11284;48.086;-1.652;2022-09-30T14:31:28;5.22;;;2.17;;
22230;SDS011;11284;48.086;-1.652;2022-09-30T14:33:56;2.63;;;0.75;;
22230;SDS011;11284;48.086;-1.652;2022-09-30T14:36:22;4.30;;;0.98;;
22230;SDS011;11284;48.086;-1.652;2022-09-30T14:38:51;3.83;;;0.80;;
22230;SDS011;11284;48.086;-1.652;2022-09-30T14:41:19;3.35;;;0.90;;
22230;SDS011;11284;48.086;-1.652;2022-09-30T14:43:46;1.98;;;0.65;;
22230;SDS011;11284;48.086;-1.652;2022-09-30T14:48:42;2.95;;;0.73;;
22230;SDS011;11284;48.086;-1.652;2022-09-30T14:51:13;3.92;;;0.90;;
22230;SDS011;11284;48.086;-1.652;2022-09-30T14:53:41;3.05;;;0.73;;
22230;SDS011;11284;48.086;-1.652;2022-09-30T14:56:20;2.42;;;0.80;;
22230;SDS011;11284;48.086;-1.652;2022-09-30T14:58:47;3.88;;;0.82;;
22230;SDS011;11284;48.086;-1.652;2022-09-30T15:01:17;2.47;;;0.70;;
22230;SDS011;11284;48.086;-1.652;2022-09-30T15:03:53;3.90;;;2.00;;
22230;SDS011;11284;48.086;-1.652;2022-09-30T15:06:22;2.83;;;0.98;;
22230;SDS011;11284;48.086;-1.652;2022-09-30T15:08:48;2.40;;;0.85;;
22230;SDS011;11284;48.086;-1.652;2022-09-30T15:11:19;3.85;;;1.33;;
22230;SDS011;11284;48.086;-1.652;2022-09-30T15:13:45;5.28;;;2.65;;
22230;SDS011;11284;48.086;-1.652;2022-09-30T15:16:23;4.45;;;1.38;;
22230;SDS011;11284;48.086;-1.652;2022-09-30T15:18:49;2.75;;;0.85;;
22230;SDS011;11284;48.086;-1.652;2022-09-30T15:21:15;4.18;;;1.33;;
22230;SDS011;11284;48.086;-1.652;2022-09-30T15:23:43;3.40;;;1.02;;
22230;SDS011;11284;48.086;-1.652;2022-09-30T15:26:11;4.13;;;0.90;;
22230;SDS011;11284;48.086;-1.652;2022-09-30T15:28:37;3.53;;;0.82;;
22230;SDS011;11284;48.086;-1.652;2022-09-30T15:31:04;3.45;;;0.80;;
22230;SDS011;11284;48.086;-1.652;2022-09-30T15:33:31;3.50;;;1.15;;
22230;SDS011;11284;48.086;-1.652;2022-09-30T15:36:02;4.88;;;1.52;;
22230;SDS011;11284;48.086;-1.652;2022-09-30T15:38:29;3.10;;;0.80;;
22230;SDS011;11284;48.086;-1.652;2022-09-30T15:40:58;4.10;;;0.90;;
22230;SDS011;11284;48.086;-1.652;2022-09-30T15:48:32;4.22;;;1.13;;
22230;SDS011;11284;48.086;-1.652;2022-09-30T15:51:00;3.75;;;1.10;;
22230;SDS011;11284;48.086;-1.652;2022-09-30T15:55:58;2.92;;;0.90;;
22230;SDS011;11284;48.086;-1.652;2022-09-30T16:01:40;3.28;;;1.10;;
22230;SDS011;11284;48.086;-1.652;2022-09-30T16:04:00;4.75;;;1.08;;
22230;SDS011;11284;48.086;-1.652;2022-09-30T16:06:28;3.00;;;0.95;;
22230;SDS011;11284;48.086;-1.652;2022-09-30T16:09:00;3.72;;;1.00;;
22230;SDS011;11284;48.086;-1.652;2022-09-30T16:11:31;5.47;;;1.25;;
22230;SDS011;11284;48.086;-1.652;2022-09-30T16:13:59;4.72;;;1.10;;
22230;SDS011;11284;48.086;-1.652;2022-09-30T16:16:27;3.28;;;1.00;;
22230;SDS011;11284;48.086;-1.652;2022-09-30T16:18:54;3.08;;;1.10;;
22230;SDS011;11284;48.086;-1.652;2022-09-30T16:23:56;4.28;;;1.30;;
22230;SDS011;11284;48.086;-1.652;2022-09-30T16:26:26;3.03;;;1.20;;
22230;SDS011;11284;48.086;-1.652;2022-09-30T16:28:53;6.63;;;1.65;;
22230;SDS011;11284;48.086;-1.652;2022-09-30T16:31:20;3.72;;;1.30;;
22230;SDS011;11284;48.086;-1.652;2022-09-30T16:33:46;4.93;;;1.45;;
22230;SDS011;11284;48.086;-1.652;2022-09-30T16:36:13;6.55;;;1.73;;
22230;SDS011;11284;48.086;-1.652;2022-09-30T16:38:40;5.72;;;1.48;;
22230;SDS011;11284;48.086;-1.652;2022-09-30T16:41:12;7.55;;;1.60;;
22230;SDS011;11284;48.086;-1.652;2022-09-30T16:43:38;4.78;;;1.60;;
22230;SDS011;11284;48.086;-1.652;2022-09-30T16:46:05;4.72;;;1.60;;
22230;SDS011;11284;48.086;-1.652;2022-09-30T16:48:31;7.10;;;1.50;;
22230;SDS011;11284;48.086;-1.652;2022-09-30T16:53:31;5.15;;;1.80;;
22230;SDS011;11284;48.086;-1.652;2022-09-30T16:55:57;4.72;;;1.60;;
22230;SDS011;11284;48.086;-1.652;2022-09-30T16:58:24;6.10;;;1.95;;
22230;SDS011;11284;48.086;-1.652;2022-09-30T17:00:50;5.90;;;2.03;;
22230;SDS011;11284;48.086;-1.652;2022-09-30T17:03:16;5.82;;;1.92;;
22230;SDS011;11284;48.086;-1.652;2022-09-30T17:05:44;7.97;;;1.70;;
22230;SDS011;11284;48.086;-1.652;2022-09-30T17:08:17;6.10;;;1.90;;
22230;SDS011;11284;48.086;-1.652;2022-09-30T17:10:44;5.38;;;1.70;;
22230;SDS011;11284;48.086;-1.652;2022-09-30T17:13:14;6.55;;;1.90;;
22230;SDS011;11284;48.086;-1.652;2022-09-30T17:15:41;6.60;;;1.90;;
22230;SDS011;11284;48.086;-1.652;2022-09-30T17:18:08;7.20;;;1.77;;
22230;SDS011;11284;48.086;-1.652;2022-09-30T17:20:35;7.93;;;4.47;;
22230;SDS011;11284;48.086;-1.652;2022-09-30T17:23:01;7.60;;;2.25;;
22230;SDS011;11284;48.086;-1.652;2022-09-30T17:25:27;7.82;;;2.13;;
22230;SDS011;11284;48.086;-1.652;2022-09-30T17:27:53;9.70;;;2.08;;
22230;SDS011;11284;48.086;-1.652;2022-09-30T17:30:23;7.13;;;2.03;;
22230;SDS011;11284;48.086;-1.652;2022-09-30T17:32:49;5.80;;;1.98;;
22230;SDS011;11284;48.086;-1.652;2022-09-30T17:35:17;7.93;;;2.20;;
22230;SDS011;11284;48.086;-1.652;2022-09-30T17:37:43;7.70;;;1.77;;
22230;SDS011;11284;48.086;-1.652;2022-09-30T17:40:11;6.57;;;1.80;;
22230;SDS011;11284;48.086;-1.652;2022-09-30T17:42:56;5.00;;;1.75;;
22230;SDS011;11284;48.086;-1.652;2022-09-30T17:45:31;6.60;;;2.30;;
22230;SDS011;11284;48.086;-1.652;2022-09-30T17:47:57;5.85;;;2.35;;
22230;SDS011;11284;48.086;-1.652;2022-09-30T17:50:23;7.05;;;2.08;;
22230;SDS011;11284;48.086;-1.652;2022-09-30T17:52:49;8.52;;;3.38;;
22230;SDS011;11284;48.086;-1.652;2022-09-30T17:55:15;6.63;;;2.72;;
22230;SDS011;11284;48.086;-1.652;2022-09-30T17:57:41;7.57;;;2.22;;
22230;SDS011;11284;48.086;-1.652;2022-09-30T18:00:07;7.30;;;1.67;;
22230;SDS011;11284;48.086;-1.652;2022-09-30T18:02:36;6.13;;;2.05;;
22230;SDS011;11284;48.086;-1.652;2022-09-30T18:05:03;5.10;;;1.73;;
22230;SDS011;11284;48.086;-1.652;2022-09-30T18:07:29;7.57;;;2.17;;
22230;SDS011;11284;48.086;-1.652;2022-09-30T18:09:55;5.85;;;1.80;;
22230;SDS011;11284;48.086;-1.652;2022-09-30T18:12:21;6.22;;;2.20;;